createdAt,value
2023-04-16T00:01:03.980Z,6.18
2023-04-16T00:03:30.878Z,7.20
2023-04-16T00:05:57.698Z,5.35
2023-04-16T00:08:24.691Z,8.10
2023-04-16T00:10:53.054Z,7.50
2023-04-16T00:13:19.907Z,7.72
2023-04-16T00:15:46.538Z,6.63
2023-04-16T00:18:13.200Z,8.52
2023-04-16T00:20:39.934Z,8.23
2023-04-16T00:23:06.638Z,6.93
2023-04-16T00:25:33.344Z,7.75
2023-04-16T00:28:00.003Z,7.60
2023-04-16T00:30:26.685Z,7.20
2023-04-16T00:32:53.317Z,7.10
2023-04-16T00:35:20.365Z,7.47
2023-04-16T00:37:47.029Z,8.93
2023-04-16T00:40:13.770Z,6.82
2023-04-16T00:42:40.527Z,6.30
2023-04-16T00:45:07.893Z,7.80
2023-04-16T00:47:34.590Z,7.45
2023-04-16T00:50:02.877Z,8.60
2023-04-16T00:52:31.187Z,8.15
2023-04-16T00:54:59.306Z,8.55
2023-04-16T00:57:27.027Z,8.00
2023-04-16T00:59:54.607Z,7.90
2023-04-16T01:02:21.407Z,8.57
2023-04-16T01:04:48.338Z,9.40
2023-04-16T01:07:14.950Z,7.82
2023-04-16T01:09:41.626Z,9.25
2023-04-16T01:12:08.291Z,10.00
2023-04-16T01:14:36.491Z,11.02
2023-04-16T01:17:04.121Z,9.48
2023-04-16T01:19:36.365Z,8.63
2023-04-16T01:22:04.046Z,8.27
2023-04-16T01:24:31.306Z,9.63
2023-04-16T01:26:59.355Z,8.50
2023-04-16T01:29:26.467Z,6.82
2023-04-16T01:31:54.294Z,8.55
2023-04-16T01:34:21.099Z,8.75
2023-04-16T01:36:47.737Z,7.32
2023-04-16T01:39:16.367Z,8.48
2023-04-16T01:41:43.677Z,8.52
2023-04-16T01:44:10.774Z,9.77
2023-04-16T01:46:38.221Z,8.55
2023-04-16T01:49:07.341Z,7.05
2023-04-16T01:51:34.222Z,7.13
2023-04-16T01:54:01.344Z,11.63
2023-04-16T01:56:28.077Z,8.05
2023-04-16T01:58:54.871Z,6.47
2023-04-16T02:01:21.837Z,6.72
2023-04-16T02:03:49.000Z,6.03
2023-04-16T02:06:15.842Z,7.40
2023-04-16T02:08:43.232Z,5.20
2023-04-16T02:11:09.969Z,7.15
2023-04-16T02:13:36.825Z,6.50
2023-04-16T02:16:03.644Z,8.40
2023-04-16T02:18:30.565Z,8.38
2023-04-16T02:21:00.385Z,8.27
2023-04-16T02:23:27.192Z,6.43
2023-04-16T02:25:53.946Z,7.32
2023-04-16T02:28:20.710Z,8.10
2023-04-16T02:30:47.386Z,5.75
2023-04-16T02:33:14.125Z,7.13
2023-04-16T02:35:41.107Z,6.68
2023-04-16T02:38:08.684Z,4.90
2023-04-16T02:40:35.862Z,7.75
2023-04-16T02:43:02.709Z,6.30
2023-04-16T02:45:31.573Z,6.30
2023-04-16T02:47:58.415Z,5.88
2023-04-16T02:50:25.076Z,8.95
2023-04-16T02:52:51.813Z,7.40
2023-04-16T02:55:18.588Z,7.95
2023-04-16T02:57:45.371Z,7.75
2023-04-16T03:00:12.858Z,6.72
2023-04-16T03:02:39.681Z,7.72
2023-04-16T03:05:06.762Z,8.93
2023-04-16T03:07:33.382Z,7.38
2023-04-16T03:10:00.075Z,8.63
2023-04-16T03:12:26.724Z,7.82
2023-04-16T03:14:53.422Z,8.38
2023-04-16T03:17:20.118Z,9.43
2023-04-16T03:19:46.881Z,9.55
2023-04-16T03:22:13.568Z,11.07
2023-04-16T03:24:40.239Z,8.98
2023-04-16T03:27:06.867Z,12.32
2023-04-16T03:29:33.591Z,9.77
2023-04-16T03:32:00.254Z,11.30
2023-04-16T03:34:26.956Z,13.13
2023-04-16T03:36:53.609Z,9.90
2023-04-16T03:39:20.607Z,9.20
2023-04-16T03:41:47.328Z,12.00
2023-04-16T03:44:13.983Z,9.77
2023-04-16T03:46:40.684Z,11.77
2023-04-16T03:49:07.957Z,10.98
2023-04-16T03:51:34.982Z,10.80
2023-04-16T03:54:01.655Z,9.48
2023-04-16T03:56:28.306Z,12.07
2023-04-16T03:58:55.000Z,10.93
2023-04-16T04:01:21.679Z,9.65
2023-04-16T04:03:48.512Z,9.38
2023-04-16T04:06:15.339Z,11.32
2023-04-16T04:08:42.788Z,11.02
2023-04-16T04:11:09.416Z,12.18
2023-04-16T04:13:36.067Z,14.82
2023-04-16T04:16:02.762Z,11.88
2023-04-16T04:18:29.435Z,10.95
2023-04-16T04:20:56.157Z,10.93
2023-04-16T04:23:22.813Z,10.90
2023-04-16T04:25:49.544Z,11.20
2023-04-16T04:28:16.225Z,10.63
2023-04-16T04:30:42.883Z,13.02
2023-04-16T04:33:09.580Z,13.80
2023-04-16T04:35:36.229Z,12.05
2023-04-16T04:38:03.256Z,11.60
2023-04-16T04:40:29.948Z,12.45
2023-04-16T04:42:56.571Z,12.10
2023-04-16T04:45:25.647Z,12.30
2023-04-16T04:47:55.856Z,11.63
2023-04-16T04:50:22.708Z,12.40
2023-04-16T04:52:49.518Z,15.38
2023-04-16T04:55:16.631Z,14.27
2023-04-16T04:57:43.611Z,11.45
2023-04-16T05:00:11.346Z,14.18
2023-04-16T05:02:38.765Z,13.70
2023-04-16T05:05:06.196Z,11.52
2023-04-16T05:07:32.864Z,11.82
2023-04-16T05:09:59.648Z,10.25
2023-04-16T05:12:26.624Z,10.80
2023-04-16T05:14:53.287Z,12.25
2023-04-16T05:17:19.974Z,12.32
2023-04-16T05:19:46.676Z,14.77
2023-04-16T05:22:13.368Z,12.38
2023-04-16T05:24:40.291Z,13.63
2023-04-16T05:27:07.029Z,13.23
2023-04-16T05:29:33.729Z,11.73
2023-04-16T05:32:00.562Z,12.20
2023-04-16T05:34:27.212Z,12.07
2023-04-16T05:36:53.863Z,13.43
2023-04-16T05:39:21.245Z,12.07
2023-04-16T05:41:47.902Z,13.52
2023-04-16T05:44:15.343Z,14.32
2023-04-16T05:46:42.028Z,13.70
2023-04-16T05:49:09.018Z,16.08
2023-04-16T05:51:36.158Z,14.48
2023-04-16T05:54:02.860Z,15.05
2023-04-16T05:56:29.582Z,14.90
2023-04-16T05:58:56.238Z,17.55
2023-04-16T06:01:22.970Z,15.45
2023-04-16T06:03:49.786Z,15.48
2023-04-16T06:06:16.532Z,16.88
2023-04-16T06:08:43.260Z,15.13
2023-04-16T06:11:09.956Z,18.17
2023-04-16T06:13:37.389Z,20.23
2023-04-16T06:16:04.249Z,16.67
2023-04-16T06:18:31.003Z,20.02
2023-04-16T06:20:59.325Z,17.85
2023-04-16T06:23:26.105Z,17.40
2023-04-16T06:25:52.813Z,20.30
2023-04-16T06:28:19.463Z,20.38
2023-04-16T06:30:46.959Z,18.98
2023-04-16T06:33:13.649Z,19.38
2023-04-16T06:35:40.300Z,19.60
2023-04-16T06:38:06.965Z,19.60
2023-04-16T06:40:33.714Z,18.60
2023-04-16T06:43:00.395Z,20.25
2023-04-16T06:45:27.128Z,18.88
2023-04-16T06:47:53.791Z,20.38
2023-04-16T06:50:21.247Z,18.70
2023-04-16T06:52:47.890Z,21.63
2023-04-16T06:55:14.619Z,18.15
2023-04-16T06:57:41.426Z,19.65
2023-04-16T07:00:08.920Z,29.98
2023-04-16T07:02:35.729Z,25.08
2023-04-16T07:05:02.532Z,24.42
2023-04-16T07:07:29.221Z,20.85
2023-04-16T07:09:55.945Z,18.40
2023-04-16T07:12:22.992Z,18.80
2023-04-16T07:14:49.914Z,16.95
2023-04-16T07:17:16.582Z,17.77
2023-04-16T07:19:43.244Z,15.60
2023-04-16T07:22:09.899Z,16.48
2023-04-16T07:24:36.637Z,15.90
2023-04-16T07:27:03.323Z,16.05
2023-04-16T07:29:29.981Z,13.35
2023-04-16T07:31:57.572Z,15.25
2023-04-16T07:34:24.302Z,17.75
2023-04-16T07:36:51.076Z,18.02
2023-04-16T07:39:17.740Z,16.95
2023-04-16T07:41:44.452Z,17.00
2023-04-16T07:44:11.168Z,17.05
2023-04-16T07:46:46.050Z,16.58
2023-04-16T07:49:13.464Z,16.77
2023-04-16T07:51:40.533Z,17.25
2023-04-16T07:54:07.209Z,19.75
2023-04-16T07:56:33.858Z,18.15
2023-04-16T07:59:07.988Z,17.33
2023-04-16T08:01:45.676Z,16.75
2023-04-16T08:04:12.525Z,16.95
2023-04-16T08:06:39.291Z,16.13
2023-04-16T08:09:06.089Z,17.55
2023-04-16T08:11:33.142Z,16.55
2023-04-16T08:13:59.798Z,15.40
2023-04-16T08:16:26.532Z,16.08
2023-04-16T08:18:53.284Z,14.20
2023-04-16T08:21:19.986Z,15.88
2023-04-16T08:23:46.668Z,14.95
2023-04-16T08:26:13.402Z,15.40
2023-04-16T08:28:40.041Z,15.52
2023-04-16T08:31:06.754Z,16.15
2023-04-16T08:33:33.505Z,19.02
2023-04-16T08:36:00.246Z,19.30
2023-04-16T08:38:27.251Z,18.40
2023-04-16T08:40:56.326Z,17.05
2023-04-16T08:43:24.146Z,18.80
2023-04-16T08:45:53.528Z,16.10
2023-04-16T08:48:22.094Z,17.47
2023-04-16T08:50:52.711Z,15.25
2023-04-16T08:53:29.746Z,15.65
2023-04-16T08:56:02.861Z,16.35
2023-04-16T08:58:34.056Z,13.25
2023-04-16T09:01:03.465Z,15.70
2023-04-16T09:03:34.820Z,16.80
2023-04-16T09:06:04.663Z,17.63
2023-04-16T09:08:32.353Z,13.88
2023-04-16T09:11:00.041Z,14.68
2023-04-16T09:13:27.098Z,17.48
2023-04-16T09:15:54.673Z,15.40
2023-04-16T09:18:21.596Z,12.27
2023-04-16T09:20:49.652Z,14.85
2023-04-16T09:23:16.420Z,13.73
2023-04-16T09:25:43.237Z,15.52
2023-04-16T09:28:10.832Z,16.08
2023-04-16T09:30:37.594Z,17.70
2023-04-16T09:33:22.455Z,17.42
2023-04-16T09:35:51.682Z,12.95
2023-04-16T09:38:19.239Z,14.63
2023-04-16T09:40:47.601Z,13.30
2023-04-16T09:43:18.710Z,12.90
2023-04-16T09:45:55.690Z,16.75
2023-04-16T09:48:33.457Z,12.27
2023-04-16T09:51:01.146Z,14.80
2023-04-16T09:53:30.761Z,13.77
2023-04-16T09:56:02.225Z,14.00
2023-04-16T09:58:29.625Z,14.93
2023-04-16T10:01:07.986Z,14.70
2023-04-16T10:03:36.815Z,14.30
2023-04-16T10:06:25.483Z,15.65
2023-04-16T10:08:54.002Z,15.07
2023-04-16T10:11:21.377Z,15.85
2023-04-16T10:13:48.495Z,14.20
2023-04-16T10:16:15.367Z,14.77
2023-04-16T10:18:44.352Z,19.60
2023-04-16T10:21:15.334Z,20.02
2023-04-16T10:23:43.339Z,15.73
2023-04-16T10:26:10.102Z,16.30
2023-04-16T10:28:37.326Z,15.30
2023-04-16T10:31:07.506Z,15.45
2023-04-16T10:36:15.938Z,13.98
2023-04-16T10:38:47.344Z,14.90
2023-04-16T10:41:14.409Z,14.57
2023-04-16T10:43:46.003Z,15.98
2023-04-16T10:46:41.019Z,16.52
2023-04-16T10:49:17.927Z,18.25
2023-04-16T10:51:56.731Z,13.50
2023-04-16T10:54:27.436Z,15.25
2023-04-16T10:56:57.475Z,15.65
2023-04-16T10:59:25.156Z,13.88
2023-04-16T11:01:56.881Z,17.05
2023-04-16T11:04:30.513Z,12.52
2023-04-16T11:07:04.569Z,15.18
2023-04-16T11:09:51.636Z,13.38
2023-04-16T11:12:29.793Z,11.80
2023-04-16T11:15:04.075Z,10.77
2023-04-16T11:17:33.871Z,13.63
2023-04-16T11:20:01.154Z,12.05
2023-04-16T11:22:28.177Z,15.40
2023-04-16T11:24:56.654Z,11.63
2023-04-16T11:27:24.383Z,16.20
2023-04-16T11:30:02.054Z,12.07
2023-04-16T11:32:34.660Z,15.15
2023-04-16T11:35:13.224Z,14.77
2023-04-16T11:37:40.381Z,16.20
2023-04-16T11:40:08.250Z,13.70
2023-04-16T11:42:38.327Z,17.38
2023-04-16T11:45:05.396Z,16.50
2023-04-16T11:47:32.450Z,16.27
2023-04-16T11:50:25.124Z,18.02
2023-04-16T11:52:53.491Z,18.92
2023-04-16T11:55:20.739Z,19.00
2023-04-16T11:57:47.778Z,18.95
2023-04-16T12:00:15.166Z,22.17
2023-04-16T12:02:46.911Z,23.00
2023-04-16T12:05:34.017Z,17.92
2023-04-16T12:08:08.636Z,20.08
2023-04-16T12:10:55.231Z,16.08
2023-04-16T12:13:23.036Z,18.63
2023-04-16T12:15:52.102Z,18.35
2023-04-16T12:18:20.443Z,16.85
2023-04-16T12:20:47.519Z,15.90
2023-04-16T12:23:28.310Z,18.35
2023-04-16T12:25:56.386Z,16.98
2023-04-16T12:28:34.018Z,13.98
2023-04-16T12:31:01.697Z,17.75
2023-04-16T12:33:28.480Z,17.88
2023-04-16T12:35:55.250Z,12.57
2023-04-16T12:38:24.251Z,16.13
2023-04-16T12:40:51.893Z,15.18
2023-04-16T12:43:19.790Z,15.43
2023-04-16T12:45:46.797Z,15.15
2023-04-16T12:48:13.531Z,15.88
2023-04-16T12:50:40.271Z,14.07
2023-04-16T12:53:07.679Z,15.13
2023-04-16T12:55:34.904Z,14.23
2023-04-16T12:58:02.496Z,14.60
2023-04-16T13:00:29.769Z,19.75
2023-04-16T13:02:57.686Z,16.10
2023-04-16T13:05:24.783Z,16.27
2023-04-16T13:07:52.574Z,14.90
2023-04-16T13:10:21.618Z,14.50
2023-04-16T13:12:49.481Z,13.05
2023-04-16T13:15:16.591Z,13.32
2023-04-16T13:17:43.695Z,17.00
2023-04-16T13:20:10.778Z,15.10
2023-04-16T13:22:37.715Z,14.32
2023-04-16T13:25:05.138Z,17.33
2023-04-16T13:27:32.566Z,14.55
2023-04-16T13:29:59.333Z,15.30
2023-04-16T13:32:26.182Z,14.80
2023-04-16T13:34:52.913Z,14.98
2023-04-16T13:37:19.571Z,14.93
2023-04-16T13:39:46.434Z,14.80
2023-04-16T13:42:13.101Z,15.73
2023-04-16T13:44:39.770Z,15.15
2023-04-16T13:47:06.620Z,17.65
2023-04-16T13:49:36.025Z,16.85
2023-04-16T13:52:03.156Z,13.82
2023-04-16T13:54:29.878Z,15.38
2023-04-16T13:56:56.765Z,13.02
2023-04-16T13:59:23.608Z,15.43
2023-04-16T14:01:51.092Z,16.58
2023-04-16T14:04:17.935Z,16.27
2023-04-16T14:06:44.694Z,18.90
2023-04-16T14:09:11.715Z,17.35
2023-04-16T14:11:38.563Z,16.15
2023-04-16T14:14:05.469Z,19.83
2023-04-16T14:16:32.177Z,20.20
2023-04-16T14:18:58.884Z,17.58
2023-04-16T14:21:27.016Z,19.05
2023-04-16T14:23:53.688Z,17.08
2023-04-16T14:26:20.691Z,15.02
2023-04-16T14:28:47.675Z,15.10
2023-04-16T14:31:14.499Z,15.35
2023-04-16T14:33:41.215Z,13.70
2023-04-16T14:36:07.981Z,13.73
2023-04-16T14:38:34.691Z,14.27
2023-04-16T14:41:01.377Z,13.90
2023-04-16T14:43:28.066Z,12.48
2023-04-16T14:45:54.925Z,15.65
2023-04-16T14:48:22.139Z,14.98
2023-04-16T14:50:48.936Z,16.38
2023-04-16T14:53:15.903Z,14.35
2023-04-16T14:55:42.591Z,15.00
2023-04-16T14:58:10.763Z,13.68
2023-04-16T15:00:37.668Z,13.45
2023-04-16T15:03:05.073Z,13.90
2023-04-16T15:05:31.988Z,14.43
2023-04-16T15:07:58.692Z,15.13
2023-04-16T15:10:25.346Z,15.80
2023-04-16T15:12:52.021Z,15.48
2023-04-16T15:15:18.743Z,14.85
2023-04-16T15:17:45.893Z,13.75
2023-04-16T15:20:13.460Z,17.17
2023-04-16T15:22:40.357Z,17.23
2023-04-16T15:25:07.678Z,14.35
2023-04-16T15:27:34.384Z,18.52
2023-04-16T15:30:01.134Z,14.77
2023-04-16T15:32:27.838Z,16.42
2023-04-16T15:34:54.516Z,15.18
2023-04-16T15:37:21.178Z,17.50
2023-04-16T15:39:47.915Z,16.98
2023-04-16T15:42:14.626Z,15.98
2023-04-16T15:44:41.284Z,16.27
2023-04-16T15:47:08.717Z,15.02
2023-04-16T15:49:36.069Z,16.88
2023-04-16T15:52:03.096Z,15.90
2023-04-16T15:54:30.977Z,16.63
2023-04-16T15:56:58.792Z,16.90
2023-04-16T15:59:28.444Z,15.27
2023-04-16T16:01:56.454Z,16.33
2023-04-16T16:04:23.465Z,16.85
2023-04-16T16:06:50.734Z,15.27
2023-04-16T16:09:18.516Z,16.00
2023-04-16T16:11:45.174Z,18.33
2023-04-16T16:14:11.910Z,16.25
2023-04-16T16:16:39.717Z,17.35
2023-04-16T16:19:06.915Z,14.98
2023-04-16T16:21:33.621Z,14.25
2023-04-16T16:24:00.304Z,15.20
2023-04-16T16:26:27.135Z,15.70
2023-04-16T16:28:53.785Z,16.98
2023-04-16T16:31:20.805Z,15.13
2023-04-16T16:33:47.624Z,16.85
2023-04-16T16:36:14.507Z,14.63
2023-04-16T16:38:42.394Z,20.05
2023-04-16T16:41:09.184Z,17.13
2023-04-16T16:43:36.735Z,15.73
2023-04-16T16:46:03.613Z,16.25
2023-04-16T16:48:30.358Z,17.42
2023-04-16T16:50:57.264Z,15.60
2023-04-16T16:53:24.012Z,18.85
2023-04-16T16:55:50.698Z,15.57
2023-04-16T16:58:17.351Z,18.45
2023-04-16T17:00:44.057Z,18.67
2023-04-16T17:03:11.053Z,17.92
2023-04-16T17:05:38.067Z,16.38
2023-04-16T17:08:04.937Z,18.60
2023-04-16T17:10:31.606Z,17.63
2023-04-16T17:12:58.278Z,16.77
2023-04-16T17:15:25.055Z,19.77
2023-04-16T17:17:51.803Z,20.65
2023-04-16T17:20:18.661Z,19.08
2023-04-16T17:22:45.334Z,17.27
2023-04-16T17:25:12.434Z,19.08
2023-04-16T17:27:41.978Z,17.08
2023-04-16T17:30:09.221Z,17.90
2023-04-16T17:32:35.937Z,15.32
2023-04-16T17:35:04.459Z,18.23
2023-04-16T17:37:31.402Z,18.33
2023-04-16T17:39:58.108Z,16.63
2023-04-16T17:42:24.889Z,17.02
2023-04-16T17:44:51.902Z,16.38
2023-04-16T17:47:18.547Z,16.30
2023-04-16T17:49:45.395Z,17.27
2023-04-16T17:52:12.036Z,14.43
2023-04-16T17:54:38.695Z,17.90
2023-04-16T17:57:05.347Z,15.57
2023-04-16T17:59:33.336Z,17.75
2023-04-16T18:02:00.312Z,16.40
2023-04-16T18:04:27.418Z,17.92
2023-04-16T18:06:54.307Z,17.25
2023-04-16T18:09:20.986Z,17.42
2023-04-16T18:11:47.653Z,14.75
2023-04-16T18:14:16.968Z,16.90
2023-04-16T18:16:45.980Z,18.95
2023-04-16T18:19:13.458Z,18.27
2023-04-16T18:21:40.098Z,17.63
2023-04-16T18:24:07.066Z,17.13
2023-04-16T18:26:35.739Z,19.52
2023-04-16T18:29:03.957Z,21.75
2023-04-16T18:31:30.774Z,18.08
2023-04-16T18:33:58.567Z,20.80
2023-04-16T18:36:26.866Z,18.77
2023-04-16T18:39:01.520Z,19.63
2023-04-16T18:41:29.727Z,18.13
2023-04-16T18:43:56.625Z,15.52
2023-04-16T18:46:23.387Z,20.60
2023-04-16T18:48:50.194Z,15.45
2023-04-16T18:51:17.047Z,15.82
2023-04-16T18:53:45.594Z,17.00
2023-04-16T18:56:12.582Z,13.55
2023-04-16T18:58:39.230Z,14.95
2023-04-16T19:01:11.048Z,13.60
2023-04-16T19:03:38.466Z,13.82
2023-04-16T19:06:06.185Z,10.50
2023-04-16T19:08:33.030Z,11.07
2023-04-16T19:10:59.947Z,15.68
2023-04-16T19:13:26.776Z,10.65
2023-04-16T19:15:59.455Z,11.80
2023-04-16T19:18:26.552Z,10.43
2023-04-16T19:21:01.659Z,13.35
2023-04-16T19:23:28.793Z,14.13
2023-04-16T19:25:59.176Z,14.65
2023-04-16T19:28:26.230Z,12.38
2023-04-16T19:30:53.839Z,16.45
2023-04-16T19:33:20.690Z,17.08
2023-04-16T19:35:47.418Z,15.73
2023-04-16T19:38:14.403Z,17.90
2023-04-16T19:40:44.791Z,15.55
2023-04-16T19:45:43.865Z,15.15
2023-04-16T19:48:11.319Z,15.30
2023-04-16T19:50:44.130Z,15.90
2023-04-16T19:53:11.915Z,15.00
2023-04-16T19:55:42.163Z,16.10
2023-04-16T19:58:09.501Z,18.27
2023-04-16T20:00:43.338Z,17.60
2023-04-16T20:03:10.272Z,18.65
2023-04-16T20:05:36.948Z,16.52
2023-04-16T20:08:03.704Z,20.42
2023-04-16T20:10:31.527Z,18.30
2023-04-16T20:12:58.483Z,18.63
2023-04-16T20:15:25.277Z,17.58
2023-04-16T20:17:52.411Z,16.70
2023-04-16T20:20:19.176Z,15.45
2023-04-16T20:22:45.797Z,18.52
2023-04-16T20:25:14.343Z,20.38
2023-04-16T20:27:41.084Z,20.02
2023-04-16T20:30:08.296Z,19.92
2023-04-16T20:32:34.951Z,20.95
2023-04-16T20:35:02.034Z,17.98
2023-04-16T20:37:29.104Z,19.42
2023-04-16T20:39:56.224Z,18.52
2023-04-16T20:42:26.095Z,21.33
2023-04-16T20:44:56.254Z,18.15
2023-04-16T20:49:50.459Z,17.35
2023-04-16T20:52:17.127Z,19.25
2023-04-16T20:54:44.004Z,20.58
2023-04-16T20:57:10.689Z,20.08
2023-04-16T20:59:37.404Z,25.77
2023-04-16T21:02:04.361Z,23.15
2023-04-16T21:04:31.320Z,21.52
2023-04-16T21:06:58.087Z,23.08
2023-04-16T21:09:24.813Z,25.80
2023-04-16T21:11:51.460Z,21.25
2023-04-16T21:14:18.427Z,22.70
2023-04-16T21:16:45.165Z,21.25
2023-04-16T21:19:12.020Z,26.10
2023-04-16T21:21:38.939Z,24.83
2023-04-16T21:24:06.059Z,26.08
2023-04-16T21:26:32.740Z,26.20
2023-04-16T21:28:59.392Z,24.38
2023-04-16T21:31:26.151Z,24.20
2023-04-16T21:33:52.905Z,23.77
2023-04-16T21:36:19.546Z,27.95
2023-04-16T21:38:46.301Z,26.45
2023-04-16T21:41:12.938Z,28.80
2023-04-16T21:43:39.708Z,28.17
2023-04-16T21:46:06.356Z,27.67
2023-04-16T21:48:33.039Z,24.10
2023-04-16T21:51:06.309Z,25.85
2023-04-16T21:53:33.645Z,25.98
2023-04-16T21:56:00.702Z,29.83
2023-04-16T21:58:27.430Z,32.00
2023-04-16T22:00:54.312Z,27.92
2023-04-16T22:03:26.374Z,32.40
2023-04-16T22:06:02.883Z,28.75
2023-04-16T22:08:30.206Z,27.35
2023-04-16T22:11:01.916Z,29.83
2023-04-16T22:13:32.344Z,28.65
2023-04-16T22:16:03.211Z,28.95
2023-04-16T22:18:33.080Z,29.38
2023-04-16T22:21:00.346Z,32.50
2023-04-16T22:23:27.116Z,30.67
2023-04-16T22:25:55.900Z,31.13
2023-04-16T22:28:23.048Z,34.55
2023-04-16T22:30:50.368Z,31.17
2023-04-16T22:33:17.188Z,33.58
2023-04-16T22:35:43.898Z,32.83
2023-04-16T22:38:10.788Z,44.45
2023-04-16T22:40:37.492Z,39.08
2023-04-16T22:43:04.498Z,33.20
2023-04-16T22:45:31.231Z,36.08
2023-04-16T22:47:57.938Z,42.50
2023-04-16T22:50:24.586Z,36.22
2023-04-16T22:52:51.223Z,38.72
2023-04-16T22:55:18.027Z,36.60
2023-04-16T22:57:44.683Z,38.78
2023-04-16T23:00:15.937Z,33.70
2023-04-16T23:02:43.174Z,39.75
2023-04-16T23:05:10.137Z,38.88
2023-04-16T23:07:36.782Z,40.15
2023-04-16T23:10:04.143Z,40.45
2023-04-16T23:12:30.876Z,39.35
2023-04-16T23:14:58.279Z,39.03
2023-04-16T23:17:25.042Z,41.42
2023-04-16T23:19:51.765Z,40.58
2023-04-16T23:22:18.403Z,39.88
2023-04-16T23:24:45.118Z,38.78
2023-04-16T23:27:11.776Z,42.72
2023-04-16T23:29:38.441Z,43.65
2023-04-16T23:32:05.165Z,43.03
2023-04-16T23:34:32.746Z,45.85
2023-04-16T23:36:59.625Z,43.53
2023-04-16T23:39:26.260Z,41.72
2023-04-16T23:41:52.883Z,41.80
2023-04-16T23:44:19.819Z,41.65
2023-04-16T23:46:46.447Z,42.20
2023-04-16T23:49:13.239Z,46.28
2023-04-16T23:51:40.105Z,47.53
2023-04-16T23:54:07.027Z,51.13
2023-04-16T23:56:33.709Z,50.83
2023-04-16T23:59:00.464Z,44.90
